createdAt,value
2022-12-06T06:03:47.721Z,9.88
2022-12-06T06:08:50.458Z,9.35
2022-12-06T06:13:54.505Z,9.32
2022-12-06T06:18:56.765Z,8.02
2022-12-06T06:23:59.213Z,9.80
2022-12-06T06:29:01.438Z,10.15
2022-12-06T06:34:03.810Z,10.25
2022-12-06T06:39:06.008Z,10.25
2022-12-06T06:44:08.249Z,10.60
2022-12-06T06:49:11.863Z,9.65
2022-12-06T06:54:15.404Z,10.13
2022-12-06T06:59:17.721Z,9.73
2022-12-06T07:04:20.000Z,8.50
2022-12-06T07:09:22.203Z,9.95
2022-12-06T07:14:24.503Z,10.45
2022-12-06T07:19:26.802Z,12.25
2022-12-06T07:24:29.022Z,8.85
2022-12-06T07:29:31.215Z,10.98
2022-12-06T07:34:33.461Z,10.18
2022-12-06T07:39:35.646Z,9.15
2022-12-06T07:45:01.306Z,8.15
2022-12-06T07:50:06.160Z,9.25
2022-12-06T07:55:09.982Z,9.95
2022-12-06T08:00:15.570Z,9.27
2022-12-06T08:05:17.847Z,7.25
2022-12-06T08:10:20.088Z,8.25
2022-12-06T08:15:22.342Z,7.10
2022-12-06T08:20:24.597Z,7.72
2022-12-06T08:25:26.779Z,7.03
2022-12-06T08:30:29.304Z,7.72
2022-12-06T08:35:31.660Z,7.53
2022-12-06T08:40:33.905Z,8.80
2022-12-06T08:45:36.452Z,9.55
2022-12-06T08:50:39.007Z,7.18
2022-12-06T08:55:41.634Z,8.45
2022-12-06T09:00:43.873Z,8.50
2022-12-06T09:05:46.084Z,11.13
2022-12-06T09:10:48.280Z,9.75
2022-12-06T09:15:50.520Z,10.30
2022-12-06T09:20:52.763Z,9.38
2022-12-06T09:25:55.072Z,9.27
2022-12-06T09:30:57.904Z,9.57
2022-12-06T09:36:05.839Z,9.43
2022-12-06T09:41:50.940Z,10.48
2022-12-06T09:47:02.196Z,8.65
2022-12-06T09:52:41.624Z,7.22
2022-12-06T09:57:56.175Z,8.75
2022-12-06T10:02:58.385Z,6.70
2022-12-06T10:08:49.121Z,8.77
2022-12-06T10:14:13.885Z,6.93
2022-12-06T10:19:41.583Z,12.98
2022-12-06T10:25:05.567Z,6.68
2022-12-06T10:30:11.037Z,6.45
2022-12-06T10:35:19.348Z,5.53
2022-12-06T10:40:34.238Z,7.05
2022-12-06T10:46:24.061Z,6.85
2022-12-06T10:51:34.546Z,4.28
2022-12-06T10:56:41.737Z,6.40
2022-12-06T11:01:45.821Z,7.57
2022-12-06T11:06:54.947Z,6.47
2022-12-06T11:11:58.019Z,9.65
2022-12-06T11:17:05.134Z,7.10
2022-12-06T11:22:35.261Z,6.47
2022-12-06T11:27:44.938Z,7.40
2022-12-06T11:32:50.405Z,7.43
2022-12-06T11:38:02.035Z,7.05
2022-12-06T11:43:08.988Z,6.68
2022-12-06T11:48:18.006Z,5.50
2022-12-06T11:53:27.014Z,6.57
2022-12-06T11:59:01.529Z,4.13
2022-12-06T12:04:32.290Z,4.70
2022-12-06T12:10:00.588Z,4.70
2022-12-06T12:15:03.125Z,5.07
2022-12-06T12:20:08.547Z,4.40
2022-12-06T12:25:36.978Z,4.10
2022-12-06T12:30:52.779Z,4.60
2022-12-06T12:36:02.124Z,3.53
2022-12-06T12:41:23.430Z,3.67
2022-12-06T12:46:26.134Z,3.90
2022-12-06T12:51:36.911Z,4.30
2022-12-06T12:56:39.465Z,4.38
2022-12-06T13:02:03.316Z,4.03
2022-12-06T13:07:31.830Z,5.05
2022-12-06T13:12:44.845Z,3.63
2022-12-06T13:18:00.962Z,4.13
2022-12-06T13:23:09.200Z,3.95
2022-12-06T13:28:19.021Z,5.07
2022-12-06T13:33:27.233Z,4.37
2022-12-06T13:38:32.342Z,5.38
2022-12-06T13:43:39.560Z,3.70
2022-12-06T13:49:05.618Z,4.45
2022-12-06T13:54:13.862Z,7.32
2022-12-06T13:59:16.048Z,5.63
2022-12-06T14:04:24.061Z,6.47
2022-12-06T14:09:28.848Z,6.70
2022-12-06T14:14:31.015Z,8.27
2022-12-06T14:19:45.492Z,7.60
2022-12-06T14:25:15.383Z,6.95
2022-12-06T14:30:26.381Z,9.85
2022-12-06T14:35:36.993Z,7.47
2022-12-06T14:41:01.087Z,8.55
2022-12-06T14:46:10.668Z,7.53
2022-12-06T14:51:23.220Z,8.48
2022-12-06T14:56:32.710Z,9.05
2022-12-06T15:01:36.410Z,11.05
2022-12-06T15:06:55.208Z,6.85
2022-12-06T15:12:42.406Z,8.80
2022-12-06T15:17:45.128Z,8.40
2022-12-06T15:22:47.390Z,9.27
2022-12-06T15:27:49.661Z,11.32
2022-12-06T15:32:51.897Z,9.05
2022-12-06T15:37:54.084Z,8.18
2022-12-06T15:43:02.008Z,8.68
2022-12-06T15:48:04.989Z,10.70
2022-12-06T15:53:10.346Z,7.22
2022-12-06T15:58:12.552Z,9.45
2022-12-06T16:03:14.929Z,10.02
2022-12-06T16:08:17.256Z,9.18
2022-12-06T16:13:23.348Z,9.23
2022-12-06T16:18:25.647Z,9.50
2022-12-06T16:24:18.228Z,10.15
2022-12-06T16:29:20.694Z,11.32
2022-12-06T16:34:23.140Z,12.48
2022-12-06T16:39:25.735Z,12.00
2022-12-06T16:44:28.137Z,13.68
2022-12-06T16:49:48.300Z,11.48
2022-12-06T16:54:50.838Z,10.17
2022-12-06T16:59:53.125Z,11.23
2022-12-06T17:04:56.653Z,12.25
2022-12-06T17:09:59.485Z,10.70
2022-12-06T17:15:01.902Z,15.45
2022-12-06T17:20:05.882Z,11.30
2022-12-06T17:25:09.913Z,9.88
2022-12-06T17:30:17.714Z,11.48
2022-12-06T17:35:19.927Z,9.68
2022-12-06T17:40:22.129Z,10.07
2022-12-06T17:45:25.707Z,10.48
2022-12-06T17:50:27.879Z,9.18
2022-12-06T17:55:30.208Z,9.07
2022-12-06T18:00:32.394Z,11.77
2022-12-06T18:05:34.627Z,11.35
2022-12-06T18:10:36.800Z,13.77
2022-12-06T18:15:39.093Z,11.75
2022-12-06T18:20:43.130Z,12.60
2022-12-06T18:25:45.337Z,14.40
2022-12-06T18:30:47.563Z,15.93
2022-12-06T18:35:53.570Z,16.48
2022-12-06T18:41:08.485Z,17.77
2022-12-06T18:46:21.969Z,19.38
2022-12-06T18:51:27.366Z,19.80
2022-12-06T18:56:32.400Z,25.73
2022-12-06T19:01:37.087Z,23.52
2022-12-06T19:06:39.393Z,22.38
2022-12-06T19:11:44.281Z,20.30
2022-12-06T19:16:49.338Z,20.30
2022-12-06T19:21:54.266Z,23.17
2022-12-06T19:27:00.007Z,26.10
2022-12-06T19:32:02.534Z,21.02
2022-12-06T19:37:04.870Z,21.98
2022-12-06T19:42:25.710Z,21.27
2022-12-06T19:47:27.910Z,22.13
2022-12-06T19:52:31.132Z,26.20
2022-12-06T19:57:33.551Z,26.65
2022-12-06T20:02:36.099Z,25.90
2022-12-06T20:07:38.387Z,28.70
2022-12-06T20:12:40.639Z,30.35
2022-12-06T20:17:42.987Z,28.30
2022-12-06T20:22:45.235Z,27.33
2022-12-06T20:27:53.366Z,24.95
2022-12-06T20:32:55.671Z,24.80
2022-12-06T20:37:57.903Z,30.55
2022-12-06T20:43:00.130Z,27.23
2022-12-06T20:48:02.315Z,24.52
2022-12-06T20:53:04.588Z,28.40
2022-12-06T20:58:06.790Z,25.65
2022-12-06T21:03:09.168Z,23.20
2022-12-06T21:08:11.663Z,26.30
2022-12-06T21:13:13.939Z,23.17
2022-12-06T21:18:19.823Z,23.42
2022-12-06T21:23:22.362Z,23.10
2022-12-06T21:28:24.634Z,20.60
2022-12-06T21:33:27.005Z,20.70
2022-12-06T21:38:32.710Z,21.23
2022-12-06T21:43:36.223Z,20.08
2022-12-06T21:48:39.254Z,19.77
2022-12-06T21:53:41.600Z,22.73
2022-12-06T21:58:44.350Z,22.40
2022-12-06T22:03:51.202Z,19.63
2022-12-06T22:09:02.718Z,19.45
2022-12-06T22:14:05.575Z,18.77
2022-12-06T22:19:07.818Z,16.45
2022-12-06T22:24:10.198Z,17.77
2022-12-06T22:29:12.709Z,15.57
2022-12-06T22:34:14.947Z,14.48
2022-12-06T22:39:18.563Z,15.52
2022-12-06T22:44:20.875Z,14.88
